ETNH

Hohn Airport

Germany
METAR ETNH 250020Z 18004KT 5000 -RA BR BKN020 08/07 Q1006 WHT
Observed Flight Rules
Apr-25 @ 00:20 UTC (31 minutes ago) Marginal Visual Flight Rules
Wind Visibility Clouds Conditions
180° at 4 knots 5,005 meters
  • Broken at 2,000' AGL
  • Light Rain
  • Mist
Temperatures Readings
Current 8°C / 46°F
Dewpoint 7°C / 45°F
Humidity 93%
Altimeter 29.7" Hg
Pressure 1006 hPa
Elevation 17
METAR ETNH 250020Z 18004KT 5000 -RA BR BKN020 08/07 Q1006 WHT
Observed Flight Rules
Apr-25 @ 00:20 UTC
(31 minutes ago)
MVFR
Wind Visibility
180° at 4 knots 5,005 meters
Clouds
  • Broken at 2,000' AGL
Conditions
  • Light Rain
  • Mist
Temperature Dewpoint
8°C / 46°F 7°C / 45°F
Humidity Altimeter Pressure
93% 29.7" Hg 1006 hPa